Time;durP1;ratioP1;P1;durP2;ratioP2;P2;SDS_P1;SDS_P2;PMS_P1;PMS_P2;Temp;Humidity;BMP_temperature;BMP_pressure;BME280_temperature;BME280_humidity;BME280_pressure;Samples;Min_cycle;Max_cycle;Signal;HPM_P1;HPM_P2
2023/08/24 00:00:33;;;;;;;6.93;6.23;;;26.40;56.00;;;;;;5004720;28;20281;-46
2023/08/24 00:02:59;;;;;;;10.87;7.00;;;26.40;55.90;;;;;;5012330;28;20190;-46
2023/08/24 00:05:24;;;;;;;7.50;6.80;;;26.30;56.30;;;;;;5013413;28;20444;-46
2023/08/24 00:07:51;;;;;;;13.23;6.73;;;26.30;56.30;;;;;;5014095;28;20216;-45
2023/08/24 00:10:17;;;;;;;7.70;7.03;;;26.10;56.90;;;;;;5014965;28;20194;-46
2023/08/24 00:12:43;;;;;;;8.23;7.37;;;26.00;57.10;;;;;;5013809;28;20435;-47
2023/08/24 00:15:10;;;;;;;6.93;6.33;;;25.90;57.30;;;;;;5013121;28;20586;-47
2023/08/24 00:17:37;;;;;;;7.50;6.80;;;26.00;57.10;;;;;;5014386;28;20522;-46
2023/08/24 00:20:04;;;;;;;7.67;6.90;;;26.10;57.00;;;;;;5014689;28;20425;-45
2023/08/24 00:22:30;;;;;;;8.07;7.20;;;26.10;57.00;;;;;;5013650;28;20441;-47
2023/08/24 00:24:56;;;;;;;6.80;6.30;;;26.10;56.80;;;;;;5014313;28;20523;-46
2023/08/24 00:27:21;;;;;;;7.50;6.80;;;26.20;56.80;;;;;;5013910;28;20515;-45
2023/08/24 00:29:47;;;;;;;8.07;7.13;;;26.30;56.50;;;;;;5014224;28;20201;-46
2023/08/24 00:32:12;;;;;;;8.30;7.50;;;26.30;56.30;;;;;;5013926;28;20272;-47
2023/08/24 00:34:38;;;;;;;7.90;7.30;;;26.40;56.20;;;;;;5006361;28;20248;-47
2023/08/24 00:37:03;;;;;;;7.03;6.40;;;26.40;56.10;;;;;;5013435;28;20729;-46
2023/08/24 00:39:29;;;;;;;7.10;6.60;;;26.40;56.00;;;;;;5014005;28;20214;-45
2023/08/24 00:41:55;;;;;;;9.20;6.60;;;26.40;56.00;;;;;;5011779;28;20564;-45
2023/08/24 00:44:20;;;;;;;7.27;6.70;;;26.30;56.10;;;;;;5013383;28;20280;-46
2023/08/24 00:46:46;;;;;;;9.93;7.50;;;26.30;56.30;;;;;;5013076;28;20238;-46
2023/08/24 00:49:12;;;;;;;9.30;7.13;;;26.20;56.30;;;;;;5014148;28;20208;-46
2023/08/24 00:51:38;;;;;;;8.27;6.60;;;26.20;56.50;;;;;;5013704;28;20705;-47
2023/08/24 00:54:04;;;;;;;8.33;7.23;;;26.10;56.50;;;;;;5014267;28;20433;-46
2023/08/24 00:56:30;;;;;;;8.77;6.93;;;26.00;56.90;;;;;;5013570;28;20616;-45
2023/08/24 00:58:57;;;;;;;7.73;7.13;;;25.90;57.10;;;;;;5013905;28;20519;-47
2023/08/24 01:01:24;;;;;;;9.20;7.30;;;25.80;57.50;;;;;;5013577;28;20194;-46
2023/08/24 01:03:49;;;;;;;9.20;6.90;;;25.60;57.90;;;;;;5013818;28;20441;-46
2023/08/24 01:06:15;;;;;;;7.67;7.17;;;25.60;57.90;;;;;;5013500;28;20421;-45
2023/08/24 01:08:41;;;;;;;7.30;6.60;;;25.60;57.90;;;;;;5011943;28;20194;-45
2023/08/24 01:11:26;;;;;;;9.30;7.63;;;25.70;57.70;;;;;;5013566;28;20212;-46
2023/08/24 01:14:06;;;;;;;8.73;7.93;;;25.60;57.80;;;;;;5013787;28;20448;-46
2023/08/24 01:16:33;;;;;;;8.53;7.70;;;25.60;58.20;;;;;;5020152;28;20428;-48
2023/08/24 01:18:59;;;;;;;7.83;7.13;;;25.60;58.00;;;;;;5013747;28;20493;-46
2023/08/24 01:21:29;;;;;;;8.30;7.53;;;25.70;57.90;;;;;;5012933;28;20821;-47
2023/08/24 01:24:12;;;;;;;8.60;7.83;;;25.70;57.90;;;;;;5013900;28;20444;-45
2023/08/24 01:26:39;;;;;;;8.10;7.40;;;25.60;58.00;;;;;;5012825;28;20421;-45
2023/08/24 01:29:05;;;;;;;7.80;6.80;;;25.60;58.10;;;;;;5013576;28;20456;-46
2023/08/24 01:31:31;;;;;;;8.10;7.33;;;25.60;58.00;;;;;;5012246;28;20511;-49
2023/08/24 01:33:56;;;;;;;7.40;6.80;;;25.60;57.90;;;;;;5013602;28;20517;-48
2023/08/24 01:36:22;;;;;;;7.83;7.07;;;25.60;58.20;;;;;;5011048;28;20562;-48
2023/08/24 01:38:58;;;;;;;8.30;7.50;;;25.50;58.40;;;;;;5012908;28;20249;-46
2023/08/24 01:41:29;;;;;;;8.40;7.37;;;25.50;59.00;;;;;;5012629;28;20209;-46
2023/08/24 01:43:57;;;;;;;11.20;7.50;;;25.50;58.40;;;;;;5013316;28;20436;-46
2023/08/24 01:46:25;;;;;;;8.13;6.97;;;25.50;58.40;;;;;;5012357;28;20456;-51
2023/08/24 01:48:51;;;;;;;7.10;6.50;;;25.60;58.20;;;;;;5013382;28;20956;-47
2023/08/24 01:51:18;;;;;;;8.53;7.80;;;25.60;58.00;;;;;;5012689;28;20512;-46
2023/08/24 01:53:44;;;;;;;7.33;6.73;;;25.60;57.70;;;;;;5012838;28;21016;-46
2023/08/24 01:56:15;;;;;;;7.50;6.80;;;25.70;57.70;;;;;;5011921;28;20443;-48
2023/08/24 01:58:41;;;;;;;8.03;7.33;;;25.70;57.50;;;;;;5013177;28;20503;-47
2023/08/24 02:01:10;;;;;;;8.33;7.40;;;25.70;57.40;;;;;;5010760;28;20920;-48
2023/08/24 02:03:36;;;;;;;6.80;6.30;;;25.70;57.40;;;;;;5013199;28;20202;-47
2023/08/24 02:06:01;;;;;;;8.07;7.17;;;25.70;57.20;;;;;;5012412;28;20441;-45
2023/08/24 02:08:27;;;;;;;9.20;7.27;;;25.70;57.30;;;;;;5013052;28;20611;-46
2023/08/24 02:10:53;;;;;;;7.73;7.10;;;25.70;57.50;;;;;;5012962;28;20189;-45
2023/08/24 02:13:18;;;;;;;6.70;6.10;;;25.70;57.40;;;;;;5012204;28;20201;-45
2023/08/24 02:15:44;;;;;;;7.47;6.87;;;25.70;57.40;;;;;;5012880;28;20221;-45
2023/08/24 02:18:10;;;;;;;8.07;7.37;;;25.60;57.40;;;;;;5012230;28;20323;-45
2023/08/24 02:20:37;;;;;;;8.63;7.93;;;25.60;57.40;;;;;;5012658;28;20193;-45
2023/08/24 02:23:03;;;;;;;9.57;8.10;;;25.60;57.60;;;;;;5012279;28;20194;-46
2023/08/24 02:25:29;;;;;;;9.30;8.40;;;25.50;57.80;;;;;;5012529;28;20467;-47
2023/08/24 02:27:55;;;;;;;8.40;7.80;;;25.50;57.90;;;;;;5010521;28;20421;-45
2023/08/24 02:30:20;;;;;;;8.27;7.57;;;25.50;57.90;;;;;;5012632;28;20198;-45
2023/08/24 02:32:46;;;;;;;8.57;7.90;;;25.50;58.00;;;;;;5010082;28;20197;-45
2023/08/24 02:35:11;;;;;;;8.07;7.53;;;25.40;58.10;;;;;;5005904;28;20201;-45
2023/08/24 02:37:37;;;;;;;8.87;8.07;;;25.00;59.30;;;;;;5012042;28;20193;-45
2023/08/24 02:40:03;;;;;;;8.70;7.50;;;24.90;59.90;;;;;;5012747;28;20236;-45
2023/08/24 02:42:33;;;;;;;8.00;7.40;;;24.70;60.70;;;;;;5011786;28;20190;-47
2023/08/24 02:44:59;;;;;;;8.60;8.00;;;24.40;61.80;;;;;;5012476;28;20524;-45
2023/08/24 02:47:25;;;;;;;8.30;7.60;;;24.10;62.90;;;;;;5011535;28;20556;-45
2023/08/24 02:49:51;;;;;;;8.83;8.03;;;24.00;63.70;;;;;;5012641;28;20193;-45
2023/08/24 02:52:17;;;;;;;7.87;7.17;;;24.00;63.60;;;;;;5011813;28;20293;-45
2023/08/24 02:54:43;;;;;;;7.67;6.97;;;24.10;63.30;;;;;;5010763;28;20504;-45
2023/08/24 02:57:08;;;;;;;8.90;7.97;;;24.30;62.60;;;;;;5011785;28;20197;-45
2023/08/24 02:59:34;;;;;;;10.37;7.60;;;24.40;62.20;;;;;;5012356;28;20263;-45
2023/08/24 03:02:00;;;;;;;7.53;7.03;;;24.50;61.70;;;;;;5011822;28;20190;-45
2023/08/24 03:04:25;;;;;;;7.57;6.97;;;24.50;61.90;;;;;;5012178;28;20559;-45
2023/08/24 03:06:51;;;;;;;8.07;7.37;;;24.60;61.60;;;;;;5012382;28;20236;-45
2023/08/24 03:09:17;;;;;;;7.50;6.80;;;24.70;61.30;;;;;;5016290;28;20253;-45
2023/08/24 03:11:43;;;;;;;9.00;8.10;;;24.80;60.80;;;;;;5015511;28;20280;-45
2023/08/24 03:14:08;;;;;;;8.40;7.60;;;24.80;60.20;;;;;;5016057;28;20221;-46
2023/08/24 03:16:34;;;;;;;8.57;7.67;;;24.70;60.40;;;;;;5021845;28;20196;-45
2023/08/24 03:18:59;;;;;;;7.63;7.13;;;24.60;60.60;;;;;;5015820;28;20233;-45
2023/08/24 03:21:25;;;;;;;9.37;8.07;;;24.60;60.90;;;;;;5013545;28;20646;-46
2023/08/24 03:23:51;;;;;;;8.77;7.97;;;24.60;60.80;;;;;;5016012;28;20206;-50
2023/08/24 03:26:16;;;;;;;9.10;8.20;;;24.50;61.30;;;;;;5015295;28;20205;-46
2023/08/24 03:28:43;;;;;;;7.53;6.93;;;24.20;62.00;;;;;;5015648;28;20198;-45
2023/08/24 03:31:08;;;;;;;9.07;8.27;;;24.10;62.80;;;;;;5003412;28;20198;-46
2023/08/24 03:33:34;;;;;;;11.27;7.40;;;24.00;63.50;;;;;;5015713;28;20780;-45
2023/08/24 03:36:00;;;;;;;8.33;7.60;;;24.20;62.90;;;;;;5014611;28;20701;-46
2023/08/24 03:38:27;;;;;;;8.30;7.50;;;24.30;62.40;;;;;;5015509;28;20508;-45
2023/08/24 03:41:00;;;;;;;11.73;7.50;;;24.30;62.20;;;;;;5015583;28;20421;-45
2023/08/24 03:43:25;;;;;;;8.30;7.70;;;24.40;61.90;;;;;;5015242;28;20446;-45
2023/08/24 03:45:51;;;;;;;8.90;8.07;;;24.50;61.60;;;;;;5015236;28;20436;-45
2023/08/24 03:48:17;;;;;;;8.07;7.47;;;24.30;62.00;;;;;;5013351;28;20194;-45
2023/08/24 03:50:42;;;;;;;8.63;7.80;;;24.20;62.90;;;;;;5015364;28;20680;-45
2023/08/24 03:53:08;;;;;;;8.77;8.00;;;24.10;63.20;;;;;;5014453;28;20202;-45
2023/08/24 03:55:34;;;;;;;9.13;7.87;;;23.90;63.80;;;;;;5014887;28;20205;-45
2023/08/24 03:57:59;;;;;;;8.67;7.90;;;23.90;64.10;;;;;;5014437;28;20214;-45
2023/08/24 04:00:26;;;;;;;9.07;8.37;;;23.90;63.90;;;;;;5015400;28;20939;-47
2023/08/24 04:02:51;;;;;;;9.10;8.30;;;24.00;63.70;;;;;;5014234;28;20608;-45
2023/08/24 04:05:17;;;;;;;8.50;7.70;;;24.00;63.50;;;;;;5015429;28;20560;-45
2023/08/24 04:07:43;;;;;;;8.80;8.20;;;24.00;63.30;;;;;;5014464;28;20629;-45
2023/08/24 04:10:09;;;;;;;8.20;7.40;;;23.90;63.60;;;;;;5015085;28;20193;-46
2023/08/24 04:12:35;;;;;;;8.93;8.03;;;23.90;63.90;;;;;;5013991;28;20206;-46
2023/08/24 04:15:01;;;;;;;9.93;8.97;;;24.00;63.70;;;;;;5013403;28;20437;-47
2023/08/24 04:17:26;;;;;;;8.90;8.10;;;24.00;63.30;;;;;;5014319;28;20225;-45
2023/08/24 04:19:52;;;;;;;9.20;7.73;;;24.10;63.40;;;;;;5013680;28;20660;-45
2023/08/24 04:22:18;;;;;;;8.77;8.00;;;24.10;63.60;;;;;;5013926;28;20205;-45
2023/08/24 04:24:43;;;;;;;9.07;8.37;;;24.10;63.30;;;;;;5014745;28;20505;-45
2023/08/24 04:27:09;;;;;;;8.63;7.83;;;24.20;63.20;;;;;;5014087;28;20280;-45
2023/08/24 04:29:35;;;;;;;9.70;8.80;;;24.20;63.00;;;;;;5014597;28;20198;-46
2023/08/24 04:32:00;;;;;;;10.23;7.90;;;24.20;62.80;;;;;;5013291;28;20264;-45
2023/08/24 04:34:26;;;;;;;8.47;7.77;;;24.20;62.80;;;;;;5014544;28;20273;-46
2023/08/24 04:36:52;;;;;;;10.03;8.23;;;24.30;62.70;;;;;;5013814;28;20534;-45
2023/08/24 04:39:18;;;;;;;9.47;8.67;;;24.10;63.00;;;;;;5014430;28;20226;-51
2023/08/24 04:41:45;;;;;;;9.80;8.83;;;23.80;64.80;;;;;;5012658;28;20236;-44
2023/08/24 04:44:10;;;;;;;9.63;8.73;;;23.60;65.80;;;;;;5014255;28;20433;-45
2023/08/24 04:46:36;;;;;;;8.60;7.70;;;23.30;67.30;;;;;;5013635;28;21106;-45
2023/08/24 04:49:01;;;;;;;7.90;7.20;;;23.00;68.70;;;;;;5014352;28;20198;-47
2023/08/24 04:51:27;;;;;;;8.60;7.73;;;23.00;68.80;;;;;;5013661;28;20221;-45
2023/08/24 04:53:54;;;;;;;10.33;9.27;;;23.10;68.50;;;;;;5013958;28;20240;-47
2023/08/24 04:56:19;;;;;;;10.00;9.20;;;23.30;67.50;;;;;;5013566;28;20746;-45
2023/08/24 04:59:00;;;;;;;14.73;9.17;;;23.60;66.50;;;;;;5013904;28;20850;-46
2023/08/24 05:01:31;;;;;;;9.37;8.57;;;23.80;65.70;;;;;;5013128;28;20202;-47
2023/08/24 05:03:57;;;;;;;8.00;7.40;;;23.90;64.70;;;;;;5013609;28;20433;-45
2023/08/24 05:06:23;;;;;;;9.43;8.60;;;24.10;64.00;;;;;;5012031;28;20433;-45
2023/08/24 05:08:48;;;;;;;8.93;7.87;;;24.10;63.60;;;;;;5014032;28;20904;-46
2023/08/24 05:11:17;;;;;;;8.80;8.10;;;24.20;62.90;;;;;;5013143;28;20252;-46
2023/08/24 05:13:43;;;;;;;9.20;8.37;;;24.30;62.30;;;;;;5013778;28;20229;-45
2023/08/24 05:16:10;;;;;;;8.33;7.70;;;24.40;62.30;;;;;;5018504;28;20420;-45
2023/08/24 05:18:38;;;;;;;8.23;7.70;;;24.40;62.20;;;;;;5011435;28;20835;-45
2023/08/24 05:21:05;;;;;;;9.53;8.67;;;24.50;62.10;;;;;;5013133;28;20887;-45
2023/08/24 05:23:31;;;;;;;9.63;8.67;;;24.50;62.00;;;;;;5013358;28;20803;-46
2023/08/24 05:25:57;;;;;;;9.53;8.53;;;24.50;61.80;;;;;;5013295;28;20433;-46
2023/08/24 05:28:24;;;;;;;9.70;8.80;;;24.50;61.70;;;;;;5013647;28;20425;-45
2023/08/24 05:30:51;;;;;;;8.93;8.13;;;24.40;61.90;;;;;;5012780;28;20443;-46
2023/08/24 05:33:17;;;;;;;9.30;8.40;;;24.30;62.60;;;;;;5011405;28;20449;-45
2023/08/24 05:35:42;;;;;;;11.10;7.47;;;24.10;63.30;;;;;;5013097;28;20507;-45
2023/08/24 05:38:08;;;;;;;8.80;8.07;;;24.10;63.40;;;;;;5012663;28;20265;-45
2023/08/24 05:40:34;;;;;;;9.03;8.23;;;24.30;62.90;;;;;;5013461;28;20193;-46
2023/08/24 05:43:00;;;;;;;8.00;7.40;;;24.20;62.50;;;;;;5012787;28;20201;-46
2023/08/24 05:45:25;;;;;;;9.93;8.03;;;24.20;62.80;;;;;;5013262;28;20425;-47
2023/08/24 05:47:51;;;;;;;7.93;7.13;;;23.80;63.00;;;;;;5012540;28;20242;-45
2023/08/24 05:50:16;;;;;;;8.40;7.30;;;23.70;63.70;;;;;;5013440;28;20190;-47
2023/08/24 05:52:42;;;;;;;8.33;7.33;;;23.60;64.20;;;;;;5012308;28;20712;-45
2023/08/24 05:55:08;;;;;;;8.17;7.33;;;23.50;64.10;;;;;;5012913;28;20193;-47
2023/08/24 05:57:33;;;;;;;7.70;6.90;;;23.50;64.30;;;;;;5012654;28;20230;-48
2023/08/24 05:59:59;;;;;;;9.30;7.83;;;23.40;65.00;;;;;;5011637;28;20225;-45
2023/08/24 06:02:24;;;;;;;7.00;6.30;;;23.50;64.70;;;;;;5012704;28;20190;-45
2023/08/24 06:04:50;;;;;;;7.63;6.90;;;23.60;63.80;;;;;;5013038;28;20190;-46
2023/08/24 06:07:16;;;;;;;6.57;6.03;;;23.60;63.70;;;;;;5012458;28;20656;-45
2023/08/24 06:09:42;;;;;;;7.30;6.67;;;23.80;63.50;;;;;;5012992;28;20204;-45
2023/08/24 06:12:08;;;;;;;7.40;6.70;;;23.90;63.00;;;;;;5012424;28;20424;-45
2023/08/24 06:14:34;;;;;;;7.27;6.67;;;24.00;62.40;;;;;;5002602;28;20642;-45
2023/08/24 06:16:59;;;;;;;6.77;6.13;;;24.30;62.00;;;;;;5012210;28;20198;-47
2023/08/24 06:19:25;;;;;;;10.23;6.57;;;24.50;61.40;;;;;;5009394;28;20234;-45
2023/08/24 06:21:50;;;;;;;8.20;7.10;;;24.60;60.80;;;;;;5010640;28;20565;-46
2023/08/24 06:24:16;;;;;;;7.27;6.57;;;24.70;60.50;;;;;;5012841;28;20194;-46
2023/08/24 06:26:42;;;;;;;6.97;6.27;;;25.00;60.00;;;;;;5010288;28;20317;-45
2023/08/24 06:29:07;;;;;;;8.23;6.13;;;25.20;59.30;;;;;;5013064;28;20193;-45
2023/08/24 06:31:33;;;;;;;9.27;6.97;;;25.40;58.80;;;;;;5012003;28;20595;-45
2023/08/24 06:33:58;;;;;;;7.53;5.50;;;25.60;58.20;;;;;;5012349;28;20268;-45
2023/08/24 06:36:24;;;;;;;6.17;5.67;;;25.70;57.70;;;;;;5012155;28;20194;-47
2023/08/24 06:38:51;;;;;;;7.70;6.80;;;25.70;57.80;;;;;;5012527;28;20241;-47
2023/08/24 06:41:17;;;;;;;6.30;5.57;;;25.80;57.70;;;;;;5012294;28;20205;-45
2023/08/24 06:43:42;;;;;;;6.67;6.13;;;26.00;57.10;;;;;;5016234;28;20440;-46
2023/08/24 06:46:08;;;;;;;6.20;5.60;;;26.20;56.70;;;;;;5015675;28;20228;-46
2023/08/24 06:48:37;;;;;;;6.50;6.00;;;26.40;56.70;;;;;;5016458;28;20197;-46
2023/08/24 06:51:03;;;;;;;6.60;6.00;;;26.60;56.80;;;;;;5015880;28;20194;-46
2023/08/24 06:53:28;;;;;;;8.03;6.53;;;26.60;56.70;;;;;;5014914;28;20432;-46
2023/08/24 06:55:55;;;;;;;6.30;5.80;;;26.70;56.80;;;;;;5016335;28;20428;-51
2023/08/24 06:58:21;;;;;;;7.37;6.47;;;26.70;57.40;;;;;;5015999;28;20221;-46
2023/08/24 07:00:46;;;;;;;8.03;6.90;;;26.60;56.90;;;;;;5016176;28;20784;-46
2023/08/24 07:03:12;;;;;;;7.73;7.00;;;26.60;57.10;;;;;;5015643;28;20208;-46
2023/08/24 07:05:38;;;;;;;6.97;6.47;;;26.60;57.40;;;;;;5016223;28;20272;-48
2023/08/24 07:08:04;;;;;;;9.63;6.70;;;26.60;57.40;;;;;;5015702;28;20193;-46
2023/08/24 07:10:29;;;;;;;7.03;6.53;;;26.50;56.70;;;;;;5016119;28;20201;-47
2023/08/24 07:12:55;;;;;;;6.30;5.70;;;26.50;56.50;;;;;;5015571;28;20194;-46
2023/08/24 07:15:20;;;;;;;9.30;6.77;;;26.60;56.50;;;;;;5015768;28;20277;-46
2023/08/24 07:17:46;;;;;;;6.80;6.27;;;26.80;56.40;;;;;;5023753;28;20206;-49
2023/08/24 07:20:12;;;;;;;7.03;6.43;;;26.80;56.60;;;;;;5014501;28;20225;-45
2023/08/24 07:22:38;;;;;;;7.20;6.50;;;26.90;56.30;;;;;;5015199;28;20201;-48
2023/08/24 07:25:05;;;;;;;6.90;6.30;;;26.90;56.20;;;;;;5015532;28;20424;-46
2023/08/24 07:27:33;;;;;;;8.30;7.30;;;27.00;56.20;;;;;;5015326;28;20206;-45
2023/08/24 07:29:59;;;;;;;9.40;6.63;;;27.10;56.10;;;;;;5015792;28;20825;-47
2023/08/24 07:32:26;;;;;;;9.50;6.70;;;27.20;55.80;;;;;;5004707;28;20424;-47
2023/08/24 07:34:51;;;;;;;7.27;6.67;;;27.30;55.70;;;;;;5015922;28;20194;-45
2023/08/24 07:37:17;;;;;;;7.00;6.30;;;27.40;56.20;;;;;;5004463;28;20436;-45
2023/08/24 07:39:43;;;;;;;8.23;7.37;;;27.50;55.80;;;;;;5015575;28;20595;-45
2023/08/24 07:42:08;;;;;;;5.90;5.40;;;27.60;54.90;;;;;;5015068;28;20272;-46
2023/08/24 07:44:34;;;;;;;8.70;6.50;;;27.70;54.50;;;;;;5013744;28;20194;-51
2023/08/24 07:47:00;;;;;;;9.10;6.77;;;27.80;54.40;;;;;;5014868;28;20234;-48
2023/08/24 07:49:26;;;;;;;6.57;6.07;;;27.90;54.50;;;;;;5015532;28;20292;-47
2023/08/24 07:51:51;;;;;;;6.67;5.90;;;28.10;54.40;;;;;;5015091;28;20955;-46
2023/08/24 07:54:17;;;;;;;6.40;5.80;;;28.10;53.80;;;;;;5015077;28;20264;-45
2023/08/24 07:56:42;;;;;;;6.60;6.10;;;28.10;53.90;;;;;;5014685;28;20201;-45
2023/08/24 07:59:08;;;;;;;7.17;6.20;;;28.10;54.10;;;;;;5015329;28;20280;-47
2023/08/24 08:01:33;;;;;;;7.40;6.60;;;28.20;54.00;;;;;;5014962;28;20277;-45
2023/08/24 08:04:00;;;;;;;7.00;5.93;;;28.30;54.00;;;;;;5015239;28;20202;-46
2023/08/24 08:06:26;;;;;;;6.87;6.30;;;28.40;54.00;;;;;;5014382;28;20197;-47
2023/08/24 08:08:52;;;;;;;6.87;5.80;;;28.60;53.30;;;;;;5014950;28;20851;-45
2023/08/24 08:11:18;;;;;;;7.57;6.80;;;28.90;52.90;;;;;;5012844;28;20433;-45
2023/08/24 08:13:44;;;;;;;7.03;6.43;;;29.00;52.30;;;;;;5014913;28;20197;-46
2023/08/24 08:16:10;;;;;;;6.63;6.03;;;29.30;52.00;;;;;;5013269;28;20421;-46
2023/08/24 08:18:36;;;;;;;7.53;6.40;;;29.50;51.30;;;;;;5014831;28;20487;-46
2023/08/24 08:21:10;;;;;;;5.97;5.37;;;29.70;51.20;;;;;;5014384;28;20251;-48
2023/08/24 08:23:36;;;;;;;6.60;6.00;;;29.90;51.00;;;;;;5014773;28;20472;-45
2023/08/24 08:26:01;;;;;;;9.23;5.60;;;30.10;50.80;;;;;;5014113;28;20456;-46
2023/08/24 08:28:27;;;;;;;5.23;4.80;;;30.30;50.50;;;;;;5014860;28;20193;-49
2023/08/24 08:30:52;;;;;;;10.23;6.27;;;30.40;49.90;;;;;;5014660;28;20666;-49
2023/08/24 08:33:19;;;;;;;9.33;6.50;;;30.60;49.10;;;;;;5009065;28;20210;-45
2023/08/24 08:35:45;;;;;;;7.40;5.60;;;30.40;49.30;;;;;;5011128;28;20206;-46
2023/08/24 08:38:10;;;;;;;8.10;4.97;;;30.60;49.00;;;;;;5012283;28;20472;-46
2023/08/24 08:40:37;;;;;;;10.67;5.70;;;31.00;47.70;;;;;;5014521;28;20650;-48
2023/08/24 08:43:03;;;;;;;5.83;5.20;;;31.20;47.30;;;;;;5013822;28;20197;-49
2023/08/24 08:45:29;;;;;;;6.10;5.60;;;31.50;47.10;;;;;;5014481;28;20429;-50
2023/08/24 08:48:02;;;;;;;7.80;5.60;;;31.70;46.90;;;;;;5013685;28;20272;-46
2023/08/24 08:50:31;;;;;;;10.17;5.33;;;31.80;46.30;;;;;;5014162;28;20495;-46
2023/08/24 08:52:58;;;;;;;6.13;5.63;;;31.80;45.90;;;;;;5014008;28;20487;-46
2023/08/24 08:55:25;;;;;;;6.60;5.17;;;32.00;44.90;;;;;;5014383;28;20435;-47
2023/08/24 08:57:53;;;;;;;6.73;5.27;;;32.20;45.10;;;;;;5013674;28;20440;-48
2023/08/24 09:00:20;;;;;;;6.40;5.90;;;32.30;45.00;;;;;;5013670;28;20432;-47
2023/08/24 09:02:49;;;;;;;5.87;5.43;;;32.50;44.80;;;;;;5013704;28;20460;-49
2023/08/24 09:05:15;;;;;;;8.90;6.27;;;32.70;44.50;;;;;;5012037;28;20464;-46
2023/08/24 09:07:41;;;;;;;5.40;5.00;;;32.90;45.00;;;;;;5013621;28;20433;-47
2023/08/24 09:10:07;;;;;;;7.03;6.00;;;33.10;44.40;;;;;;5013956;28;20998;-46
2023/08/24 09:12:34;;;;;;;5.93;5.40;;;33.30;44.10;;;;;;5013221;28;20417;-46
2023/08/24 09:15:00;;;;;;;7.00;6.00;;;33.60;43.60;;;;;;5013777;28;20425;-47
2023/08/24 09:17:26;;;;;;;9.97;6.33;;;33.70;42.80;;;;;;5019549;28;20425;-46
2023/08/24 09:19:57;;;;;;;6.40;5.90;;;33.90;42.80;;;;;;5012227;28;20491;-46
2023/08/24 09:22:23;;;;;;;6.27;5.67;;;34.00;42.10;;;;;;5013198;28;20289;-51
2023/08/24 09:24:51;;;;;;;5.57;5.10;;;34.20;42.00;;;;;;5013687;28;20508;-46
2023/08/24 09:27:21;;;;;;;5.77;5.27;;;34.40;42.20;;;;;;5013178;28;20198;-49
2023/08/24 09:29:50;;;;;;;8.13;5.60;;;34.60;42.50;;;;;;5013215;28;20425;-47
2023/08/24 09:32:22;;;;;;;6.67;5.70;;;34.70;41.30;;;;;;5011107;28;20824;-46
2023/08/24 09:34:47;;;;;;;6.37;5.80;;;34.90;40.50;;;;;;5013396;28;20465;-48
2023/08/24 09:37:17;;;;;;;7.07;5.77;;;34.80;40.60;;;;;;5002531;28;20465;-47
2023/08/24 09:39:44;;;;;;;7.17;6.47;;;34.80;41.00;;;;;;5013207;28;20260;-51
2023/08/24 09:42:09;;;;;;;8.10;5.80;;;33.90;41.80;;;;;;5012945;28;20768;-46
2023/08/24 09:44:35;;;;;;;9.83;6.20;;;34.10;42.70;;;;;;5013470;28;20421;-48
2023/08/24 09:47:00;;;;;;;11.53;6.37;;;34.50;41.60;;;;;;5012903;28;20649;-46
2023/08/24 09:49:28;;;;;;;7.07;6.47;;;35.00;42.00;;;;;;5013068;28;20216;-47
2023/08/24 09:51:57;;;;;;;8.00;5.90;;;35.20;40.40;;;;;;5012670;28;20209;-46
2023/08/24 09:54:27;;;;;;;6.90;6.20;;;35.40;40.20;;;;;;5013150;28;20440;-46
2023/08/24 09:56:55;;;;;;;6.73;6.23;;;35.30;40.40;;;;;;5010637;28;20915;-46
2023/08/24 09:59:24;;;;;;;11.60;6.90;;;35.40;39.90;;;;;;5013142;28;20492;-46
2023/08/24 10:01:51;;;;;;;6.57;6.00;;;35.30;40.10;;;;;;5012629;28;20487;-46
2023/08/24 10:04:32;;;;;;;6.87;6.30;;;35.40;40.20;;;;;;5012964;28;20424;-46
2023/08/24 10:07:14;;;;;;;6.63;6.13;;;35.60;39.80;;;;;;5012561;28;20428;-47
2023/08/24 10:09:44;;;;;;;6.87;6.20;;;35.50;39.80;;;;;;5012828;28;20532;-46
2023/08/24 10:12:10;;;;;;;7.43;6.80;;;35.60;39.50;;;;;;5012462;28;20455;-46
2023/08/24 10:14:44;;;;;;;7.30;6.60;;;35.50;39.30;;;;;;5013132;28;20475;-46
2023/08/24 10:17:11;;;;;;;8.97;6.20;;;35.40;40.10;;;;;;5012327;28;20434;-46
2023/08/24 10:19:37;;;;;;;8.20;6.87;;;35.40;40.10;;;;;;5012833;28;20519;-46
2023/08/24 10:22:04;;;;;;;7.40;6.13;;;35.30;41.00;;;;;;5012377;28;20421;-46
2023/08/24 10:24:31;;;;;;;6.33;5.90;;;35.40;40.60;;;;;;5010404;28;20543;-46
2023/08/24 10:26:57;;;;;;;7.10;6.40;;;35.70;40.20;;;;;;5012402;28;20422;-46
2023/08/24 10:29:24;;;;;;;7.20;6.70;;;35.70;39.70;;;;;;5012712;28;20431;-46
2023/08/24 10:31:50;;;;;;;7.10;6.60;;;35.20;41.00;;;;;;5011630;28;20423;-46
2023/08/24 10:34:16;;;;;;;8.60;6.47;;;35.40;40.60;;;;;;5012461;28;20432;-46
2023/08/24 10:36:41;;;;;;;6.33;5.33;;;35.70;40.10;;;;;;5012156;28;20424;-46
2023/08/24 10:39:07;;;;;;;6.73;6.33;;;35.60;40.80;;;;;;5012712;28;20229;-46
2023/08/24 10:41:50;;;;;;;6.70;6.10;;;36.00;40.20;;;;;;5011797;28;20220;-46
2023/08/24 10:44:33;;;;;;;6.70;6.10;;;36.40;39.50;;;;;;5012741;28;20540;-46
2023/08/24 10:47:19;;;;;;;6.97;6.03;;;37.00;39.20;;;;;;5011833;28;20468;-47
2023/08/24 10:49:58;;;;;;;6.87;6.20;;;37.20;38.50;;;;;;5010988;28;20443;-47
2023/08/24 10:52:31;;;;;;;6.07;5.57;;;37.10;37.90;;;;;;5011779;28;20923;-48
2023/08/24 10:54:57;;;;;;;6.93;6.43;;;37.10;38.10;;;;;;5012660;28;20437;-47
2023/08/24 10:57:29;;;;;;;9.03;6.20;;;37.20;38.20;;;;;;5012133;28;20446;-47
2023/08/24 11:00:12;;;;;;;6.50;6.00;;;37.60;38.30;;;;;;5012299;28;20220;-48
2023/08/24 11:02:48;;;;;;;7.20;6.60;;;37.90;37.20;;;;;;5012227;28;20443;-47
2023/08/24 11:05:24;;;;;;;7.27;6.53;;;38.10;37.20;;;;;;5012584;28;20522;-48
2023/08/24 11:08:00;;;;;;;6.67;6.27;;;38.10;37.20;;;;;;5012049;28;20463;-47
2023/08/24 11:10:48;;;;;;;6.77;6.37;;;38.40;36.70;;;;;;5012321;28;20893;-47
2023/08/24 11:13:15;;;;;;;7.30;6.60;;;38.20;36.80;;;;;;5011427;28;20621;-47
2023/08/24 11:15:42;;;;;;;6.57;6.03;;;38.40;36.70;;;;;;5013362;28;20518;-47
2023/08/24 11:18:19;;;;;;;7.07;6.57;;;38.50;36.50;;;;;;5016121;28;20451;-47
2023/08/24 11:20:50;;;;;;;7.17;6.27;;;38.80;36.00;;;;;;5012357;28;20439;-47
2023/08/24 11:23:16;;;;;;;6.80;6.30;;;39.00;35.90;;;;;;5011585;28;20434;-47
2023/08/24 11:25:42;;;;;;;7.90;7.30;;;39.00;36.30;;;;;;5012100;28;20973;-47
2023/08/24 11:28:08;;;;;;;7.37;6.67;;;39.00;35.90;;;;;;5012728;28;20424;-47
2023/08/24 11:30:34;;;;;;;7.00;6.40;;;39.00;35.80;;;;;;5011202;28;20239;-48
2023/08/24 11:33:01;;;;;;;8.27;7.40;;;39.00;35.60;;;;;;5014627;28;20356;-48
2023/08/24 11:35:26;;;;;;;6.90;6.30;;;39.10;35.80;;;;;;5011699;28;20483;-47
2023/08/24 11:37:53;;;;;;;8.07;7.37;;;39.20;35.40;;;;;;5009020;28;20435;-48
2023/08/24 11:40:20;;;;;;;6.80;6.40;;;39.30;35.60;;;;;;5016294;28;20252;-49
2023/08/24 11:42:53;;;;;;;7.30;6.80;;;39.60;35.90;;;;;;5013084;28;20439;-47
2023/08/24 11:45:18;;;;;;;8.00;6.87;;;39.50;35.80;;;;;;5015708;28;20436;-46
2023/08/24 11:47:44;;;;;;;9.20;8.33;;;39.20;35.50;;;;;;5014869;28;20461;-47
2023/08/24 11:50:10;;;;;;;12.23;6.70;;;39.30;35.40;;;;;;5015291;28;20209;-47
2023/08/24 11:52:42;;;;;;;7.37;6.87;;;39.20;36.00;;;;;;5014832;28;20288;-48
2023/08/24 11:55:09;;;;;;;8.97;6.67;;;39.40;35.30;;;;;;5015839;28;21007;-47
2023/08/24 11:57:37;;;;;;;7.90;6.93;;;39.70;35.30;;;;;;5014871;28;20946;-49
2023/08/24 12:00:04;;;;;;;7.07;6.57;;;40.00;34.70;;;;;;5015571;28;20519;-48
2023/08/24 12:02:30;;;;;;;7.27;6.77;;;40.30;34.50;;;;;;5014538;28;20484;-49
2023/08/24 12:04:57;;;;;;;7.47;6.87;;;40.30;33.90;;;;;;5015015;28;20466;-52
2023/08/24 12:07:23;;;;;;;7.93;7.13;;;40.20;34.10;;;;;;5014274;28;20942;-51
2023/08/24 12:09:52;;;;;;;7.83;7.10;;;40.50;33.70;;;;;;5013804;28;20424;-47
2023/08/24 12:12:23;;;;;;;7.10;6.60;;;40.80;33.60;;;;;;5014452;28;20204;-49
2023/08/24 12:14:49;;;;;;;7.20;6.50;;;40.90;33.10;;;;;;5014776;28;20447;-48
2023/08/24 12:17:16;;;;;;;9.70;6.80;;;40.80;33.00;;;;;;5026985;28;20522;-47
2023/08/24 12:19:59;;;;;;;7.90;6.93;;;41.20;32.70;;;;;;5014987;28;20618;-47
2023/08/24 12:22:25;;;;;;;7.63;7.00;;;41.30;33.00;;;;;;5014267;28;20479;-47
2023/08/24 12:24:51;;;;;;;7.90;7.00;;;41.00;33.00;;;;;;5014408;28;20440;-47
2023/08/24 12:27:20;;;;;;;10.03;6.60;;;41.00;33.20;;;;;;5014205;28;20723;-47
2023/08/24 12:29:46;;;;;;;7.73;7.03;;;41.20;32.70;;;;;;5014991;28;20644;-50
2023/08/24 12:32:12;;;;;;;7.00;6.50;;;41.20;32.60;;;;;;5013974;28;20951;-49
2023/08/24 12:34:38;;;;;;;7.10;6.60;;;41.30;32.50;;;;;;5007986;28;20424;-48
2023/08/24 12:37:04;;;;;;;7.70;7.20;;;41.50;32.00;;;;;;5012032;28;20201;-48
2023/08/24 12:39:39;;;;;;;8.33;7.60;;;41.80;31.90;;;;;;5013831;28;20641;-51
2023/08/24 12:42:05;;;;;;;8.03;7.27;;;42.00;31.60;;;;;;5013721;28;20435;-52
2023/08/24 12:44:30;;;;;;;7.53;6.93;;;42.10;31.70;;;;;;5014550;28;20436;-48